Time;durP1;ratioP1;P1;durP2;ratioP2;P2;SDS_P1;SDS_P2;PMS_P1;PMS_P2;Temp;Humidity;BMP_temperature;BMP_pressure;BME280_temperature;BME280_humidity;BME280_pressure;Samples;Min_cycle;Max_cycle;Signal;HPM_P1;HPM_P2
2021/12/28 00:01:10;;;;;;;15.45;7.05;;;;;;;;;;5069006;28;20238;-77
2021/12/28 00:03:38;;;;;;;12.55;6.97;;;;;;;;;;5065276;28;20033;-75
2021/12/28 00:06:05;;;;;;;12.77;6.60;;;;;;;;;;5054291;28;20032;-75
2021/12/28 00:08:32;;;;;;;10.57;6.72;;;;;;;;;;5073513;28;20134;-75
2021/12/28 00:10:58;;;;;;;11.05;6.55;;;;;;;;;;5070613;28;20031;-75
2021/12/28 00:13:26;;;;;;;14.60;6.78;;;;;;;;;;5071923;28;20045;-75
2021/12/28 00:18:20;;;;;;;13.38;6.32;;;;;;;;;;5057119;28;20036;-76
2021/12/28 00:20:48;;;;;;;14.18;7.03;;;;;;;;;;5068233;28;20516;-76
2021/12/28 00:23:19;;;;;;;14.50;6.82;;;;;;;;;;5069943;28;20032;-76
2021/12/28 00:25:47;;;;;;;11.43;6.38;;;;;;;;;;5070613;28;20028;-76
2021/12/28 00:28:13;;;;;;;10.52;6.15;;;;;;;;;;5072350;28;20040;-77
2021/12/28 00:30:38;;;;;;;11.35;6.38;;;;;;;;;;5068911;28;20440;-77
2021/12/28 00:33:05;;;;;;;13.35;6.50;;;;;;;;;;5070836;28;20456;-76
2021/12/28 00:35:34;;;;;;;9.30;5.55;;;;;;;;;;5068302;28;20139;-76
2021/12/28 00:38:00;;;;;;;9.75;6.13;;;;;;;;;;5067985;28;20135;-76
2021/12/28 00:40:26;;;;;;;15.25;6.15;;;;;;;;;;5071508;28;20489;-76
2021/12/28 00:42:52;;;;;;;12.00;5.97;;;;;;;;;;5071639;28;20112;-76
2021/12/28 00:45:18;;;;;;;10.35;5.70;;;;;;;;;;5071039;28;20440;-76
2021/12/28 00:47:43;;;;;;;9.93;5.55;;;;;;;;;;5071076;28;20120;-76
2021/12/28 00:50:12;;;;;;;10.70;5.80;;;;;;;;;;5070124;28;20024;-76
2021/12/28 00:52:38;;;;;;;10.75;6.07;;;;;;;;;;5065678;28;20041;-78
2021/12/28 00:55:05;;;;;;;11.18;5.40;;;;;;;;;;5069325;28;20116;-76
2021/12/28 00:57:30;;;;;;;10.60;5.82;;;;;;;;;;5070005;28;20040;-75
2021/12/28 00:59:56;;;;;;;10.82;5.55;;;;;;;;;;5067677;28;20031;-75
2021/12/28 01:02:21;;;;;;;12.02;6.03;;;;;;;;;;5069630;28;20028;-75
2021/12/28 01:04:47;;;;;;;12.68;6.28;;;;;;;;;;5067592;28;20029;-75
2021/12/28 01:07:12;;;;;;;11.18;5.60;;;;;;;;;;5069581;28;20397;-75
2021/12/28 01:09:40;;;;;;;10.57;6.10;;;;;;;;;;5067710;28;20036;-76
2021/12/28 01:12:06;;;;;;;13.35;6.30;;;;;;;;;;5062217;28;20039;-74
2021/12/28 01:14:32;;;;;;;15.77;6.50;;;;;;;;;;5055728;28;20167;-74
2021/12/28 01:17:01;;;;;;;12.50;6.22;;;;;;;;;;5069183;28;20105;-74
2021/12/28 01:19:27;;;;;;;11.07;6.20;;;;;;;;;;5070282;28;20081;-74
2021/12/28 01:21:53;;;;;;;10.45;6.30;;;;;;;;;;5068586;28;20032;-74
2021/12/28 01:24:18;;;;;;;12.48;5.93;;;;;;;;;;5070169;28;20385;-74
2021/12/28 01:26:45;;;;;;;13.23;6.07;;;;;;;;;;5068556;28;20041;-79
2021/12/28 01:29:11;;;;;;;14.85;6.55;;;;;;;;;;5070061;28;20063;-74
2021/12/28 01:31:37;;;;;;;13.93;6.88;;;;;;;;;;5067099;28;20482;-74
2021/12/28 01:34:07;;;;;;;15.80;6.32;;;;;;;;;;5067564;28;20756;-74
2021/12/28 01:36:33;;;;;;;14.20;5.90;;;;;;;;;;5070963;28;20060;-74
2021/12/28 01:38:58;;;;;;;13.45;7.00;;;;;;;;;;5067609;28;20090;-74
2021/12/28 01:41:24;;;;;;;14.00;6.20;;;;;;;;;;5069889;28;20056;-73
2021/12/28 01:43:57;;;;;;;11.85;5.68;;;;;;;;;;5068073;28;20497;-74
2021/12/28 01:46:23;;;;;;;11.75;5.50;;;;;;;;;;5070115;28;20032;-74
2021/12/28 01:48:48;;;;;;;14.98;6.20;;;;;;;;;;5068256;28;20082;-74
2021/12/28 01:51:17;;;;;;;18.13;5.95;;;;;;;;;;5070163;28;20044;-74
2021/12/28 01:53:44;;;;;;;12.52;6.13;;;;;;;;;;5067177;28;20032;-77
2021/12/28 01:56:12;;;;;;;14.23;5.68;;;;;;;;;;5069902;28;20043;-74
2021/12/28 01:58:38;;;;;;;13.52;5.85;;;;;;;;;;5052867;28;20032;-73
2021/12/28 02:01:06;;;;;;;12.75;5.90;;;;;;;;;;5068890;28;20098;-74
2021/12/28 02:03:34;;;;;;;14.30;5.88;;;;;;;;;;5070008;28;20045;-74
2021/12/28 02:06:00;;;;;;;12.77;5.70;;;;;;;;;;5068891;28;20039;-73
2021/12/28 02:08:26;;;;;;;18.98;5.70;;;;;;;;;;5068170;28;20043;-73
2021/12/28 02:10:54;;;;;;;14.95;5.70;;;;;;;;;;5067844;28;20029;-73
2021/12/28 02:13:20;;;;;;;15.27;5.32;;;;;;;;;;5069777;28;20131;-73
2021/12/28 02:15:46;;;;;;;11.00;5.35;;;;;;;;;;5068483;28;20443;-77
2021/12/28 02:18:15;;;;;;;17.00;5.63;;;;;;;;;;5066660;28;20048;-73
2021/12/28 02:20:41;;;;;;;14.50;5.30;;;;;;;;;;5064371;28;20496;-73
2021/12/28 02:23:08;;;;;;;17.20;5.30;;;;;;;;;;5066708;28;20398;-74
2021/12/28 02:25:35;;;;;;;16.80;5.32;;;;;;;;;;5063860;28;20398;-73
2021/12/28 02:28:02;;;;;;;14.80;5.07;;;;;;;;;;5069089;28;20029;-73
2021/12/28 02:30:27;;;;;;;14.13;4.35;;;;;;;;;;5068617;28;20032;-73
2021/12/28 02:32:53;;;;;;;16.98;5.07;;;;;;;;;;5070129;28;20493;-73
2021/12/28 02:35:22;;;;;;;11.25;4.30;;;;;;;;;;5069749;28;21245;-73
2021/12/28 02:37:48;;;;;;;12.70;4.75;;;;;;;;;;5068745;28;20044;-77
2021/12/28 02:40:17;;;;;;;14.07;4.47;;;;;;;;;;5066466;28;20028;-73
2021/12/28 02:42:43;;;;;;;13.90;4.45;;;;;;;;;;5069912;28;20029;-73
2021/12/28 02:45:12;;;;;;;14.13;4.10;;;;;;;;;;5071044;28;20082;-72
2021/12/28 02:47:40;;;;;;;14.68;4.35;;;;;;;;;;5072796;28;20119;-73
2021/12/28 02:50:10;;;;;;;17.05;4.50;;;;;;;;;;5070475;28;20315;-71
2021/12/28 02:52:37;;;;;;;16.85;4.68;;;;;;;;;;5070825;28;20041;-73
2021/12/28 02:55:09;;;;;;;13.85;4.47;;;;;;;;;;5069069;28;20055;-72
2021/12/28 02:57:34;;;;;;;12.95;4.10;;;;;;;;;;5072506;28;20033;-72
2021/12/28 03:00:00;;;;;;;15.57;3.90;;;;;;;;;;5071324;28;20111;-72
2021/12/28 03:02:25;;;;;;;14.00;4.00;;;;;;;;;;5073511;28;20095;-72
2021/12/28 03:04:51;;;;;;;12.80;4.00;;;;;;;;;;5054889;28;20060;-72
2021/12/28 03:07:16;;;;;;;16.00;4.40;;;;;;;;;;5072983;28;20029;-71
2021/12/28 03:09:42;;;;;;;10.95;4.18;;;;;;;;;;5074186;28;20045;-71
2021/12/28 03:12:09;;;;;;;12.75;3.75;;;;;;;;;;5069774;28;20020;-71
2021/12/28 03:14:35;;;;;;;12.43;4.07;;;;;;;;;;5073134;28;20049;-71
2021/12/28 03:17:00;;;;;;;11.10;3.70;;;;;;;;;;5072298;28;20465;-71
2021/12/28 03:19:26;;;;;;;16.60;4.70;;;;;;;;;;5071715;28;20029;-70
2021/12/28 03:21:51;;;;;;;18.75;5.03;;;;;;;;;;5072626;28;20029;-71
2021/12/28 03:24:17;;;;;;;10.80;3.55;;;;;;;;;;5071403;28;20425;-70
2021/12/28 03:26:43;;;;;;;18.17;4.25;;;;;;;;;;5068627;28;20036;-72
2021/12/28 03:29:09;;;;;;;12.95;4.03;;;;;;;;;;5067857;28;20079;-70
2021/12/28 03:31:35;;;;;;;13.38;4.22;;;;;;;;;;5071107;28;20063;-70
2021/12/28 03:34:00;;;;;;;15.45;4.45;;;;;;;;;;5071800;28;20523;-70
2021/12/28 03:36:28;;;;;;;19.33;4.72;;;;;;;;;;5071682;28;20054;-71
2021/12/28 03:38:55;;;;;;;14.75;4.13;;;;;;;;;;5070244;28;20067;-71
2021/12/28 03:41:22;;;;;;;13.35;4.68;;;;;;;;;;5071155;28;20503;-70
2021/12/28 03:43:49;;;;;;;20.35;5.38;;;;;;;;;;5071603;28;20039;-73
2021/12/28 03:46:16;;;;;;;15.40;4.57;;;;;;;;;;5070502;28;20036;-70
2021/12/28 03:48:42;;;;;;;16.52;4.40;;;;;;;;;;5072838;28;20420;-70
2021/12/28 03:51:08;;;;;;;18.65;4.47;;;;;;;;;;5064094;28;20059;-71
2021/12/28 03:53:34;;;;;;;12.13;3.67;;;;;;;;;;5062481;28;20056;-72
2021/12/28 03:56:02;;;;;;;20.58;4.72;;;;;;;;;;5067325;28;20032;-71
2021/12/28 03:58:27;;;;;;;16.10;4.22;;;;;;;;;;5072894;28;20043;-70
2021/12/28 04:00:53;;;;;;;12.05;4.07;;;;;;;;;;5069855;28;20028;-71
2021/12/28 04:03:18;;;;;;;17.67;4.13;;;;;;;;;;5072569;28;20028;-70
2021/12/28 04:05:45;;;;;;;20.35;4.50;;;;;;;;;;5071550;28;20119;-70
2021/12/28 04:08:13;;;;;;;16.25;4.32;;;;;;;;;;5070744;28;20112;-71
2021/12/28 04:10:51;;;;;;;11.90;3.72;;;;;;;;;;5070597;28;20028;-70
2021/12/28 04:13:18;;;;;;;14.93;3.80;;;;;;;;;;5072418;28;20055;-70
2021/12/28 04:15:43;;;;;;;12.38;3.58;;;;;;;;;;5070726;28;20470;-70
2021/12/28 04:18:09;;;;;;;15.48;3.45;;;;;;;;;;5070705;28;20101;-70
2021/12/28 04:20:34;;;;;;;17.63;4.13;;;;;;;;;;5071650;28;20094;-70
2021/12/28 04:23:00;;;;;;;15.63;3.45;;;;;;;;;;5066549;28;20029;-70
2021/12/28 04:25:25;;;;;;;19.40;3.33;;;;;;;;;;5069513;28;20036;-70
2021/12/28 04:27:50;;;;;;;9.45;2.83;;;;;;;;;;5070670;28;20094;-72
2021/12/28 04:30:16;;;;;;;19.02;4.03;;;;;;;;;;5067849;28;20426;-70
2021/12/28 04:32:42;;;;;;;16.77;3.53;;;;;;;;;;5071296;28;20102;-70
2021/12/28 04:35:09;;;;;;;17.75;3.88;;;;;;;;;;5070511;28;20374;-70
2021/12/28 04:37:35;;;;;;;21.50;3.58;;;;;;;;;;5069705;28;20101;-70
2021/12/28 04:40:00;;;;;;;19.75;3.53;;;;;;;;;;5068409;28;20485;-70
2021/12/28 04:42:28;;;;;;;14.80;3.45;;;;;;;;;;5069935;28;20035;-70
2021/12/28 04:44:54;;;;;;;18.90;4.03;;;;;;;;;;5070853;28;20512;-71
2021/12/28 04:47:19;;;;;;;14.27;3.45;;;;;;;;;;5071287;28;20032;-70
2021/12/28 04:49:46;;;;;;;16.92;3.20;;;;;;;;;;5072232;28;20043;-70
2021/12/28 04:52:12;;;;;;;16.75;3.00;;;;;;;;;;5070115;28;20097;-70
2021/12/28 04:54:38;;;;;;;14.95;3.25;;;;;;;;;;5070849;28;20435;-70
2021/12/28 04:57:05;;;;;;;19.25;3.15;;;;;;;;;;5070393;28;20094;-70
2021/12/28 04:59:32;;;;;;;14.13;2.85;;;;;;;;;;5070026;28;20032;-70
2021/12/28 05:01:57;;;;;;;17.05;3.83;;;;;;;;;;5068170;28;20043;-70
2021/12/28 05:04:22;;;;;;;16.80;2.55;;;;;;;;;;5071190;28;20033;-69
2021/12/28 05:06:48;;;;;;;16.58;2.90;;;;;;;;;;5069158;28;20050;-69
2021/12/28 05:09:18;;;;;;;14.70;2.90;;;;;;;;;;5070834;28;20603;-69
2021/12/28 05:11:44;;;;;;;15.95;3.20;;;;;;;;;;5068502;28;20043;-68
2021/12/28 05:14:09;;;;;;;16.55;2.92;;;;;;;;;;5068365;28;20393;-71
2021/12/28 05:16:35;;;;;;;20.65;3.15;;;;;;;;;;5071358;28;20381;-69
2021/12/28 05:19:03;;;;;;;17.80;3.10;;;;;;;;;;5069414;28;20036;-69
2021/12/28 05:21:28;;;;;;;20.10;4.57;;;;;;;;;;5071381;28;20056;-69
2021/12/28 05:23:55;;;;;;;18.85;3.50;;;;;;;;;;5067761;28;20067;-71
2021/12/28 05:26:20;;;;;;;17.67;2.90;;;;;;;;;;5069590;28;20135;-69
2021/12/28 05:28:46;;;;;;;14.05;2.63;;;;;;;;;;5071681;28;20035;-71
2021/12/28 05:31:11;;;;;;;18.92;3.60;;;;;;;;;;5066733;28;20020;-70
2021/12/28 05:33:37;;;;;;;16.15;3.10;;;;;;;;;;5071332;28;20028;-69
2021/12/28 05:36:04;;;;;;;17.67;3.00;;;;;;;;;;5068644;28;20050;-70
2021/12/28 05:38:29;;;;;;;19.02;3.00;;;;;;;;;;5069577;28;20441;-69
2021/12/28 05:40:55;;;;;;;13.25;2.80;;;;;;;;;;5069848;28;20116;-71
2021/12/28 05:43:20;;;;;;;18.65;3.05;;;;;;;;;;5067785;28;20024;-69
2021/12/28 05:45:46;;;;;;;14.75;2.80;;;;;;;;;;5063375;28;20402;-71
2021/12/28 05:48:11;;;;;;;15.15;3.45;;;;;;;;;;5068628;28;20037;-69
2021/12/28 05:50:37;;;;;;;13.90;2.83;;;;;;;;;;5070006;28;20047;-69
2021/12/28 05:53:04;;;;;;;15.48;3.08;;;;;;;;;;5068815;28;20037;-70
2021/12/28 05:55:29;;;;;;;15.35;2.80;;;;;;;;;;5070663;28;20504;-69
2021/12/28 05:57:55;;;;;;;10.38;2.90;;;;;;;;;;5067571;28;20112;-70
2021/12/28 06:00:21;;;;;;;15.60;3.50;;;;;;;;;;5065329;28;20389;-69
2021/12/28 06:02:46;;;;;;;9.60;2.53;;;;;;;;;;5088997;28;20351;-69
2021/12/28 06:05:12;;;;;;;12.45;3.05;;;;;;;;;;5062189;28;20036;-69
2021/12/28 06:07:38;;;;;;;15.65;3.25;;;;;;;;;;5071254;28;20393;-69
2021/12/28 06:10:05;;;;;;;9.13;2.60;;;;;;;;;;5070067;28;20515;-69
2021/12/28 06:12:30;;;;;;;16.67;3.45;;;;;;;;;;5071297;28;20024;-68
2021/12/28 06:14:55;;;;;;;11.88;3.00;;;;;;;;;;5070832;28;20045;-69
2021/12/28 06:17:21;;;;;;;15.52;3.35;;;;;;;;;;5071530;28;20029;-70
2021/12/28 06:19:47;;;;;;;12.70;3.47;;;;;;;;;;5063769;28;20367;-68
2021/12/28 06:22:12;;;;;;;10.40;2.70;;;;;;;;;;5074223;28;20020;-68
2021/12/28 06:24:38;;;;;;;13.88;2.70;;;;;;;;;;5073571;28;20033;-68
2021/12/28 06:27:04;;;;;;;14.25;3.10;;;;;;;;;;5072740;28;20025;-68
2021/12/28 06:29:29;;;;;;;12.35;2.78;;;;;;;;;;5074565;28;20470;-68
2021/12/28 06:31:54;;;;;;;18.67;3.28;;;;;;;;;;5074541;28;20082;-68
2021/12/28 06:34:20;;;;;;;10.77;2.90;;;;;;;;;;5072515;28;20028;-68
2021/12/28 06:36:45;;;;;;;11.65;3.10;;;;;;;;;;5092874;28;20067;-68
2021/12/28 06:39:11;;;;;;;11.85;3.00;;;;;;;;;;5083064;28;20029;-68
2021/12/28 06:41:38;;;;;;;14.25;3.50;;;;;;;;;;5069191;28;20037;-68
2021/12/28 06:44:09;;;;;;;9.20;2.90;;;;;;;;;;5070503;28;20032;-68
2021/12/28 06:46:35;;;;;;;12.85;3.55;;;;;;;;;;5075009;28;20021;-68
2021/12/28 06:49:00;;;;;;;10.82;3.50;;;;;;;;;;5072650;28;20524;-68
2021/12/28 06:51:26;;;;;;;11.52;3.50;;;;;;;;;;5075178;28;20060;-67
2021/12/28 06:53:51;;;;;;;10.15;3.38;;;;;;;;;;5067637;28;20060;-67
2021/12/28 06:56:17;;;;;;;12.00;3.65;;;;;;;;;;5073728;28;20111;-68
2021/12/28 06:58:42;;;;;;;10.40;3.40;;;;;;;;;;5073877;28;20040;-68
2021/12/28 07:01:08;;;;;;;9.23;3.05;;;;;;;;;;5073903;28;20089;-68
2021/12/28 07:03:34;;;;;;;12.50;3.50;;;;;;;;;;5074571;28;20043;-68
2021/12/28 07:05:59;;;;;;;10.52;3.42;;;;;;;;;;5068852;28;20032;-68
2021/12/28 07:08:25;;;;;;;9.70;3.45;;;;;;;;;;5073069;28;20028;-67
2021/12/28 07:10:51;;;;;;;9.95;3.42;;;;;;;;;;5074227;28;20028;-67
2021/12/28 07:13:17;;;;;;;9.75;3.10;;;;;;;;;;5073151;28;20113;-68
2021/12/28 07:15:42;;;;;;;9.30;2.97;;;;;;;;;;5073180;28;20051;-67
2021/12/28 07:18:08;;;;;;;11.57;3.65;;;;;;;;;;5069501;28;20032;-67
2021/12/28 07:20:33;;;;;;;10.82;3.13;;;;;;;;;;5072432;28;20044;-67
2021/12/28 07:22:59;;;;;;;7.95;3.10;;;;;;;;;;5073672;28;20039;-66
2021/12/28 07:25:24;;;;;;;8.75;3.22;;;;;;;;;;5071881;28;20043;-68
2021/12/28 07:27:50;;;;;;;7.20;2.85;;;;;;;;;;5093538;28;20067;-67
2021/12/28 07:30:16;;;;;;;8.90;3.25;;;;;;;;;;5059011;28;20468;-66
2021/12/28 07:32:41;;;;;;;12.48;3.33;;;;;;;;;;5073901;28;20031;-67
2021/12/28 07:35:09;;;;;;;9.55;3.00;;;;;;;;;;5070953;28;20402;-66
2021/12/28 07:37:35;;;;;;;7.43;3.00;;;;;;;;;;5072634;28;20029;-66
2021/12/28 07:40:01;;;;;;;10.75;2.90;;;;;;;;;;5072882;28;20044;-66
2021/12/28 07:42:26;;;;;;;8.95;3.13;;;;;;;;;;5074261;28;20032;-66
2021/12/28 07:44:52;;;;;;;9.23;2.83;;;;;;;;;;5071940;28;20025;-67
2021/12/28 07:47:17;;;;;;;8.48;2.80;;;;;;;;;;5071845;28;20382;-66
2021/12/28 07:49:43;;;;;;;9.05;2.90;;;;;;;;;;5063255;28;20398;-66
2021/12/28 07:52:09;;;;;;;7.13;3.20;;;;;;;;;;5069113;28;20025;-67
2021/12/28 07:54:34;;;;;;;8.77;3.03;;;;;;;;;;5073357;28;20107;-66
2021/12/28 07:56:59;;;;;;;10.02;2.80;;;;;;;;;;5073160;28;20039;-65
2021/12/28 07:59:25;;;;;;;7.40;2.75;;;;;;;;;;5070218;28;20047;-69
2021/12/28 08:01:50;;;;;;;7.65;2.53;;;;;;;;;;5072372;28;20024;-70
2021/12/28 08:04:16;;;;;;;7.90;2.63;;;;;;;;;;5070371;28;20416;-69
2021/12/28 08:06:42;;;;;;;6.60;2.75;;;;;;;;;;5072791;28;20034;-68
2021/12/28 08:09:07;;;;;;;7.57;2.90;;;;;;;;;;5071959;28;20037;-68
2021/12/28 08:11:36;;;;;;;8.20;2.70;;;;;;;;;;5070359;28;20040;-68
2021/12/28 08:14:02;;;;;;;9.25;2.50;;;;;;;;;;5073208;28;20068;-68
2021/12/28 08:16:27;;;;;;;6.65;2.47;;;;;;;;;;5072219;28;20094;-69
2021/12/28 08:18:53;;;;;;;7.35;2.70;;;;;;;;;;5092971;28;20028;-68
2021/12/28 08:21:18;;;;;;;9.55;2.88;;;;;;;;;;5070040;28;20040;-67
2021/12/28 08:23:44;;;;;;;8.50;2.28;;;;;;;;;;5069182;28;20040;-67
2021/12/28 08:26:09;;;;;;;6.53;2.58;;;;;;;;;;5071395;28;20043;-67
2021/12/28 08:28:34;;;;;;;5.72;2.53;;;;;;;;;;5072672;28;20108;-67
2021/12/28 08:31:00;;;;;;;6.22;2.10;;;;;;;;;;5072663;28;20024;-67
2021/12/28 08:33:26;;;;;;;5.82;2.03;;;;;;;;;;5071557;28;20100;-67
2021/12/28 08:35:51;;;;;;;5.40;2.40;;;;;;;;;;5073391;28;20056;-64
2021/12/28 08:38:17;;;;;;;7.53;2.33;;;;;;;;;;5071543;28;20047;-64
2021/12/28 08:40:43;;;;;;;5.95;2.08;;;;;;;;;;5071018;28;20032;-64
2021/12/28 08:43:10;;;;;;;5.32;2.30;;;;;;;;;;5071179;28;20029;-63
2021/12/28 08:45:37;;;;;;;5.10;2.20;;;;;;;;;;5062433;28;20462;-64
2021/12/28 08:48:03;;;;;;;6.20;2.53;;;;;;;;;;5071834;28;20078;-64
2021/12/28 08:50:29;;;;;;;5.78;2.17;;;;;;;;;;5071259;28;20051;-64
2021/12/28 08:52:54;;;;;;;4.30;2.00;;;;;;;;;;5072145;28;20169;-64
2021/12/28 08:55:21;;;;;;;5.38;2.35;;;;;;;;;;5069872;28;20083;-65
2021/12/28 08:57:47;;;;;;;4.82;1.88;;;;;;;;;;5072446;28;20044;-64
2021/12/28 09:00:16;;;;;;;5.25;1.80;;;;;;;;;;5068084;28;20037;-63
2021/12/28 09:02:42;;;;;;;6.60;1.90;;;;;;;;;;5062269;28;20036;-64
2021/12/28 09:05:08;;;;;;;3.47;1.80;;;;;;;;;;5068724;28;20466;-65
2021/12/28 09:07:33;;;;;;;6.22;1.80;;;;;;;;;;5072602;28;20106;-64
2021/12/28 09:10:00;;;;;;;6.25;2.00;;;;;;;;;;5079925;28;20036;-66
2021/12/28 09:12:26;;;;;;;5.78;1.83;;;;;;;;;;5069520;28;20037;-66
2021/12/28 09:14:51;;;;;;;5.78;2.05;;;;;;;;;;5072093;28;20470;-65
2021/12/28 09:17:17;;;;;;;4.10;1.85;;;;;;;;;;5070585;28;20044;-64
2021/12/28 09:19:43;;;;;;;3.95;1.95;;;;;;;;;;5071615;28;20028;-65
2021/12/28 09:22:10;;;;;;;8.35;2.30;;;;;;;;;;5070488;28;20086;-67
2021/12/28 09:24:36;;;;;;;5.55;1.90;;;;;;;;;;5071552;28;20359;-65
2021/12/28 09:27:01;;;;;;;5.78;1.98;;;;;;;;;;5071458;28;20055;-65
2021/12/28 09:29:29;;;;;;;4.22;1.92;;;;;;;;;;5070024;28;20036;-65
2021/12/28 09:31:59;;;;;;;3.95;1.60;;;;;;;;;;5071083;28;20028;-64
2021/12/28 09:34:26;;;;;;;4.00;1.90;;;;;;;;;;5070597;28;20559;-64
2021/12/28 09:36:52;;;;;;;3.95;1.80;;;;;;;;;;5070987;28;20393;-64
2021/12/28 09:39:22;;;;;;;4.63;2.20;;;;;;;;;;5069340;28;20059;-65
2021/12/28 09:41:51;;;;;;;3.90;1.85;;;;;;;;;;5072183;28;20033;-64
2021/12/28 09:44:16;;;;;;;4.55;1.90;;;;;;;;;;5071041;28;20059;-64
2021/12/28 09:46:42;;;;;;;4.75;1.73;;;;;;;;;;5070142;28;20025;-65
2021/12/28 09:49:08;;;;;;;3.95;1.55;;;;;;;;;;5069936;28;20064;-68
2021/12/28 09:51:33;;;;;;;4.70;1.30;;;;;;;;;;5068487;28;20033;-65
2021/12/28 09:53:59;;;;;;;2.03;1.55;;;;;;;;;;5069199;28;20496;-64
2021/12/28 09:56:25;;;;;;;4.07;1.60;;;;;;;;;;5070144;28;20394;-64
2021/12/28 09:58:50;;;;;;;3.05;1.60;;;;;;;;;;5071648;28;20033;-64
2021/12/28 10:01:15;;;;;;;2.90;1.40;;;;;;;;;;5067135;28;20028;-65
2021/12/28 10:03:41;;;;;;;3.72;1.40;;;;;;;;;;5070764;28;20052;-64
2021/12/28 10:06:20;;;;;;;3.90;1.60;;;;;;;;;;5069443;28;20565;-65
2021/12/28 10:08:46;;;;;;;4.20;1.55;;;;;;;;;;5070302;28;20028;-64
2021/12/28 10:11:12;;;;;;;3.42;1.50;;;;;;;;;;5065944;28;20436;-68
2021/12/28 10:13:37;;;;;;;2.17;1.42;;;;;;;;;;5069434;28;20216;-66
2021/12/28 10:16:03;;;;;;;3.30;1.50;;;;;;;;;;5068011;28;20047;-64
2021/12/28 10:18:28;;;;;;;2.72;1.40;;;;;;;;;;5072983;28;20535;-65
2021/12/28 10:20:58;;;;;;;3.42;1.58;;;;;;;;;;5065397;28;20044;-65
2021/12/28 10:23:29;;;;;;;3.75;1.50;;;;;;;;;;5070082;28;20024;-64
2021/12/28 10:26:00;;;;;;;3.17;1.40;;;;;;;;;;5068385;28;20410;-65
2021/12/28 10:28:38;;;;;;;1.73;1.17;;;;;;;;;;5066111;28;20051;-65
2021/12/28 10:31:09;;;;;;;2.70;1.50;;;;;;;;;;5070895;28;20466;-66
2021/12/28 10:33:38;;;;;;;3.00;1.63;;;;;;;;;;5068280;28;20086;-64
2021/12/28 10:36:10;;;;;;;2.55;1.55;;;;;;;;;;5070524;28;20041;-64
2021/12/28 10:38:44;;;;;;;1.20;1.10;;;;;;;;;;5068502;28;20090;-65
2021/12/28 10:41:13;;;;;;;2.80;1.20;;;;;;;;;;5067536;28;20029;-65
2021/12/28 10:43:43;;;;;;;3.17;1.70;;;;;;;;;;5067234;28;20044;-66
2021/12/28 10:46:18;;;;;;;2.73;1.57;;;;;;;;;;5069531;28;20082;-66
2021/12/28 10:48:49;;;;;;;3.00;1.65;;;;;;;;;;5070341;28;20032;-65
2021/12/28 10:51:23;;;;;;;3.55;1.90;;;;;;;;;;5067435;28;20115;-68
2021/12/28 10:54:15;;;;;;;3.75;1.98;;;;;;;;;;5068157;28;20490;-65
2021/12/28 10:56:52;;;;;;;3.90;1.90;;;;;;;;;;5068644;28;20481;-65
2021/12/28 10:59:22;;;;;;;3.00;1.90;;;;;;;;;;5068171;28;20046;-67
2021/12/28 11:01:48;;;;;;;2.38;1.77;;;;;;;;;;5066728;28;20063;-67
2021/12/28 11:04:14;;;;;;;5.53;2.08;;;;;;;;;;5066674;28;20478;-72
2021/12/28 11:06:52;;;;;;;2.03;1.60;;;;;;;;;;5070161;28;20061;-67
2021/12/28 11:09:20;;;;;;;3.90;1.80;;;;;;;;;;5073450;28;20512;-68
2021/12/28 11:11:47;;;;;;;2.22;1.75;;;;;;;;;;5072972;28;20473;-66
2021/12/28 11:14:17;;;;;;;2.88;1.50;;;;;;;;;;5074270;28;20048;-73
2021/12/28 11:16:56;;;;;;;2.83;1.90;;;;;;;;;;5052736;28;20068;-67
2021/12/28 11:19:27;;;;;;;3.28;1.75;;;;;;;;;;5054551;28;20029;-67
2021/12/28 11:21:58;;;;;;;2.97;1.52;;;;;;;;;;5074318;28;20028;-66
2021/12/28 11:24:32;;;;;;;6.53;1.90;;;;;;;;;;5073355;28;20162;-68
2021/12/28 11:26:58;;;;;;;2.80;1.50;;;;;;;;;;5072617;28;20135;-67
2021/12/28 11:29:30;;;;;;;2.15;1.60;;;;;;;;;;5072471;28;20116;-68
2021/12/28 11:32:02;;;;;;;3.70;1.52;;;;;;;;;;5069695;28;20397;-67
2021/12/28 11:34:33;;;;;;;1.90;1.52;;;;;;;;;;5073632;28;20535;-67
2021/12/28 11:37:04;;;;;;;3.20;1.88;;;;;;;;;;5074088;28;20040;-67
2021/12/28 11:39:40;;;;;;;;;;;;;;;;;;5071998;28;20048;-67
2021/12/28 11:42:07;;;;;;;4.78;1.67;;;;;;;;;;5071668;28;19913;-66
2021/12/28 11:44:35;;;;;;;2.55;1.80;;;;;;;;;;5072017;28;20484;-66
2021/12/28 11:47:03;;;;;;;4.15;1.80;;;;;;;;;;5073487;28;20120;-65
2021/12/28 11:49:28;;;;;;;3.28;2.10;;;;;;;;;;5072959;28;20063;-72
2021/12/28 11:52:00;;;;;;;4.20;2.30;;;;;;;;;;5073445;28;20032;-69
2021/12/28 11:54:29;;;;;;;4.22;2.13;;;;;;;;;;5054974;28;20041;-65
2021/12/28 11:57:02;;;;;;;4.18;2.20;;;;;;;;;;5068412;28;20024;-65
2021/12/28 11:59:29;;;;;;;3.58;2.15;;;;;;;;;;5066518;28;20434;-64
2021/12/28 12:01:58;;;;;;;3.35;2.30;;;;;;;;;;5071467;28;20036;-64
2021/12/28 12:04:29;;;;;;;3.97;2.58;;;;;;;;;;5071370;28;20036;-65
2021/12/28 12:06:59;;;;;;;3.92;2.22;;;;;;;;;;5073365;28;20032;-64
2021/12/28 12:09:25;;;;;;;4.17;2.30;;;;;;;;;;5067353;28;20028;-66
2021/12/28 12:12:15;;;;;;;4.90;2.78;;;;;;;;;;5073038;28;20025;-65
2021/12/28 12:14:58;;;;;;;5.70;2.53;;;;;;;;;;5069246;28;20067;-65
2021/12/28 12:17:24;;;;;;;3.85;2.45;;;;;;;;;;5069597;28;20047;-66
2021/12/28 12:19:50;;;;;;;4.05;2.10;;;;;;;;;;5072523;28;20024;-68
2021/12/28 12:22:31;;;;;;;4.90;2.25;;;;;;;;;;5072608;28;20029;-67
2021/12/28 12:24:58;;;;;;;2.95;1.98;;;;;;;;;;5071398;28;20115;-67
2021/12/28 12:27:45;;;;;;;3.25;1.90;;;;;;;;;;5071785;28;20434;-67
2021/12/28 12:30:28;;;;;;;3.75;2.10;;;;;;;;;;5069448;28;20412;-65
2021/12/28 12:33:02;;;;;;;3.20;2.10;;;;;;;;;;5071928;28;20037;-64
2021/12/28 12:35:32;;;;;;;4.03;1.88;;;;;;;;;;5070331;28;20036;-65
2021/12/28 12:38:10;;;;;;;3.08;2.20;;;;;;;;;;5072683;28;20045;-65
2021/12/28 12:41:08;;;;;;;6.35;2.65;;;;;;;;;;5071374;28;20021;-66
2021/12/28 12:43:39;;;;;;;5.25;2.25;;;;;;;;;;5048130;28;20047;-66
2021/12/28 12:46:05;;;;;;;4.30;2.45;;;;;;;;;;5070519;28;20040;-66
2021/12/28 12:48:35;;;;;;;4.03;2.70;;;;;;;;;;5068886;28;20359;-67
2021/12/28 12:51:19;;;;;;;3.83;2.47;;;;;;;;;;5069506;28;20470;-67
2021/12/28 12:53:50;;;;;;;4.88;2.70;;;;;;;;;;5071806;28;20032;-67
2021/12/28 12:56:18;;;;;;;4.00;2.58;;;;;;;;;;5072027;28;20037;-67
2021/12/28 12:58:46;;;;;;;4.60;2.60;;;;;;;;;;5071226;28;20040;-67
2021/12/28 13:01:26;;;;;;;3.50;2.13;;;;;;;;;;5070595;28;20060;-66
2021/12/28 13:04:00;;;;;;;5.18;2.45;;;;;;;;;;5070758;28;20389;-66
2021/12/28 13:06:40;;;;;;;4.25;1.90;;;;;;;;;;5071286;28;20037;-66
2021/12/28 13:09:15;;;;;;;6.60;2.25;;;;;;;;;;5070688;28;20063;-65
2021/12/28 13:11:43;;;;;;;5.63;1.92;;;;;;;;;;5068172;28;20036;-66
2021/12/28 13:14:14;;;;;;;8.00;1.85;;;;;;;;;;5051791;28;20045;-66
2021/12/28 13:16:40;;;;;;;9.57;2.80;;;;;;;;;;5066831;28;20106;-66
2021/12/28 13:19:12;;;;;;;6.97;2.13;;;;;;;;;;5071002;28;20028;-65
2021/12/28 13:21:39;;;;;;;9.40;1.90;;;;;;;;;;5071571;28;20046;-67
2021/12/28 13:24:12;;;;;;;10.60;2.30;;;;;;;;;;5073063;28;20063;-66
2021/12/28 13:26:46;;;;;;;6.40;1.95;;;;;;;;;;5072339;28;20497;-65
2021/12/28 13:29:11;;;;;;;15.63;2.97;;;;;;;;;;5071815;28;20135;-64
2021/12/28 13:31:37;;;;;;;13.70;2.22;;;;;;;;;;5069962;28;20033;-63
2021/12/28 13:34:02;;;;;;;18.33;3.40;;;;;;;;;;5071302;28;20028;-64
2021/12/28 13:36:29;;;;;;;11.00;2.20;;;;;;;;;;5070973;28;20485;-65
2021/12/28 13:39:08;;;;;;;10.95;2.53;;;;;;;;;;5071157;28;20116;-65
2021/12/28 13:41:34;;;;;;;16.85;4.13;;;;;;;;;;5072512;28;20028;-65
2021/12/28 13:44:06;;;;;;;13.23;2.75;;;;;;;;;;5070140;28;20032;-67
2021/12/28 13:46:31;;;;;;;12.80;2.53;;;;;;;;;;5069755;28;20056;-67
2021/12/28 13:49:00;;;;;;;11.52;2.10;;;;;;;;;;5071681;28;20063;-64
2021/12/28 13:51:27;;;;;;;18.90;2.85;;;;;;;;;;5070553;28;20060;-67
2021/12/28 13:53:56;;;;;;;10.93;2.35;;;;;;;;;;5070748;28;20103;-66
2021/12/28 13:56:36;;;;;;;16.48;3.20;;;;;;;;;;5071515;28;20020;-70
2021/12/28 13:59:05;;;;;;;11.05;2.85;;;;;;;;;;5060387;28;20036;-66
2021/12/28 14:01:38;;;;;;;21.13;3.92;;;;;;;;;;5053123;28;20123;-67
2021/12/28 14:04:09;;;;;;;10.60;3.08;;;;;;;;;;5071341;28;20040;-67
2021/12/28 14:06:40;;;;;;;15.55;2.90;;;;;;;;;;5071017;28;20419;-68
2021/12/28 14:09:09;;;;;;;23.95;4.50;;;;;;;;;;5070991;28;20111;-69
2021/12/28 14:11:41;;;;;;;16.60;3.25;;;;;;;;;;5070093;28;20029;-69
2021/12/28 14:14:35;;;;;;;21.55;3.58;;;;;;;;;;5056357;28;20140;-69
2021/12/28 14:17:14;;;;;;;19.42;3.13;;;;;;;;;;5061415;28;20044;-70
2021/12/28 14:19:55;;;;;;;13.98;2.90;;;;;;;;;;5070227;28;20064;-69
2021/12/28 14:22:21;;;;;;;17.13;3.17;;;;;;;;;;5070502;28;20025;-69
2021/12/28 14:24:50;;;;;;;13.55;3.42;;;;;;;;;;5068930;28;20051;-64
2021/12/28 14:27:31;;;;;;;19.50;3.95;;;;;;;;;;5069929;28;20061;-65
2021/12/28 14:30:10;;;;;;;14.80;2.90;;;;;;;;;;5070681;28;20036;-65
2021/12/28 14:32:40;;;;;;;19.08;3.20;;;;;;;;;;5069859;28;20032;-64
2021/12/28 14:35:11;;;;;;;15.38;3.30;;;;;;;;;;5071424;28;20051;-70
2021/12/28 14:37:39;;;;;;;18.20;3.25;;;;;;;;;;5070442;28;20036;-70
2021/12/28 14:40:32;;;;;;;22.42;3.70;;;;;;;;;;5072310;28;20487;-70
2021/12/28 14:43:07;;;;;;;22.73;3.75;;;;;;;;;;5074315;28;20046;-69